sensor_id;sensor_type;location;lat;lon;timestamp;P1;durP1;ratioP1;P2;durP2;ratioP2
15043;SDS011;7619;48.562;8.910;2024-02-26T00:00:37;6.37;;;4.37;;
15043;SDS011;7619;48.562;8.910;2024-02-26T00:03:05;6.73;;;4.53;;
15043;SDS011;7619;48.562;8.910;2024-02-26T00:05:33;8.33;;;5.63;;
15043;SDS011;7619;48.562;8.910;2024-02-26T00:08:01;6.17;;;4.60;;
15043;SDS011;7619;48.562;8.910;2024-02-26T00:10:29;6.80;;;3.97;;
15043;SDS011;7619;48.562;8.910;2024-02-26T00:12:57;5.30;;;3.87;;
15043;SDS011;7619;48.562;8.910;2024-02-26T00:15:25;4.97;;;3.80;;
15043;SDS011;7619;48.562;8.910;2024-02-26T00:17:54;5.10;;;3.70;;
15043;SDS011;7619;48.562;8.910;2024-02-26T00:20:22;6.77;;;4.23;;
15043;SDS011;7619;48.562;8.910;2024-02-26T00:22:50;5.27;;;3.30;;
15043;SDS011;7619;48.562;8.910;2024-02-26T00:25:19;4.63;;;3.27;;
15043;SDS011;7619;48.562;8.910;2024-02-26T00:27:46;4.00;;;3.07;;
15043;SDS011;7619;48.562;8.910;2024-02-26T00:30:15;2.40;;;2.03;;
15043;SDS011;7619;48.562;8.910;2024-02-26T00:32:42;6.20;;;4.00;;
15043;SDS011;7619;48.562;8.910;2024-02-26T00:35:10;6.97;;;4.73;;
15043;SDS011;7619;48.562;8.910;2024-02-26T00:37:38;7.17;;;4.90;;
15043;SDS011;7619;48.562;8.910;2024-02-26T00:40:08;7.67;;;4.97;;
15043;SDS011;7619;48.562;8.910;2024-02-26T00:42:36;4.80;;;3.63;;
15043;SDS011;7619;48.562;8.910;2024-02-26T00:45:04;5.20;;;3.77;;
15043;SDS011;7619;48.562;8.910;2024-02-26T00:47:33;7.20;;;3.77;;
15043;SDS011;7619;48.562;8.910;2024-02-26T00:50:01;6.33;;;3.93;;
15043;SDS011;7619;48.562;8.910;2024-02-26T00:52:29;4.87;;;3.50;;
15043;SDS011;7619;48.562;8.910;2024-02-26T00:54:56;5.60;;;3.93;;
15043;SDS011;7619;48.562;8.910;2024-02-26T00:57:25;6.53;;;4.10;;
15043;SDS011;7619;48.562;8.910;2024-02-26T00:59:53;8.10;;;4.43;;
15043;SDS011;7619;48.562;8.910;2024-02-26T01:02:22;5.10;;;3.50;;
15043;SDS011;7619;48.562;8.910;2024-02-26T01:04:50;7.27;;;3.83;;
15043;SDS011;7619;48.562;8.910;2024-02-26T01:07:18;3.20;;;2.63;;
15043;SDS011;7619;48.562;8.910;2024-02-26T01:09:46;3.77;;;2.80;;
15043;SDS011;7619;48.562;8.910;2024-02-26T01:12:14;2.90;;;2.27;;
15043;SDS011;7619;48.562;8.910;2024-02-26T01:14:42;3.67;;;2.00;;
15043;SDS011;7619;48.562;8.910;2024-02-26T01:17:10;3.57;;;2.40;;
15043;SDS011;7619;48.562;8.910;2024-02-26T01:19:38;3.93;;;1.90;;
15043;SDS011;7619;48.562;8.910;2024-02-26T01:22:07;3.13;;;2.20;;
15043;SDS011;7619;48.562;8.910;2024-02-26T01:24:35;2.60;;;2.30;;
15043;SDS011;7619;48.562;8.910;2024-02-26T01:27:03;4.07;;;2.50;;
15043;SDS011;7619;48.562;8.910;2024-02-26T01:29:33;4.40;;;2.30;;
15043;SDS011;7619;48.562;8.910;2024-02-26T01:32:01;6.10;;;2.63;;
15043;SDS011;7619;48.562;8.910;2024-02-26T01:34:31;2.77;;;2.03;;
15043;SDS011;7619;48.562;8.910;2024-02-26T01:36:59;2.83;;;2.10;;
15043;SDS011;7619;48.562;8.910;2024-02-26T01:39:27;3.10;;;2.40;;
15043;SDS011;7619;48.562;8.910;2024-02-26T01:41:55;2.47;;;2.27;;
15043;SDS011;7619;48.562;8.910;2024-02-26T01:44:23;3.47;;;2.80;;
15043;SDS011;7619;48.562;8.910;2024-02-26T01:46:52;3.77;;;2.40;;
15043;SDS011;7619;48.562;8.910;2024-02-26T01:49:20;3.77;;;2.30;;
15043;SDS011;7619;48.562;8.910;2024-02-26T01:51:48;2.67;;;2.37;;
15043;SDS011;7619;48.562;8.910;2024-02-26T01:54:17;2.13;;;1.70;;
15043;SDS011;7619;48.562;8.910;2024-02-26T01:56:45;2.13;;;1.90;;
15043;SDS011;7619;48.562;8.910;2024-02-26T01:59:13;2.07;;;1.50;;
15043;SDS011;7619;48.562;8.910;2024-02-26T02:01:41;2.73;;;2.13;;
15043;SDS011;7619;48.562;8.910;2024-02-26T02:04:10;2.97;;;1.87;;
15043;SDS011;7619;48.562;8.910;2024-02-26T02:06:38;4.37;;;1.90;;
15043;SDS011;7619;48.562;8.910;2024-02-26T02:09:06;1.73;;;1.63;;
15043;SDS011;7619;48.562;8.910;2024-02-26T02:11:35;2.33;;;1.63;;
15043;SDS011;7619;48.562;8.910;2024-02-26T02:14:03;2.53;;;1.87;;
15043;SDS011;7619;48.562;8.910;2024-02-26T02:16:31;1.40;;;1.30;;
15043;SDS011;7619;48.562;8.910;2024-02-26T02:18:59;2.13;;;1.87;;
15043;SDS011;7619;48.562;8.910;2024-02-26T02:21:27;2.03;;;1.80;;
15043;SDS011;7619;48.562;8.910;2024-02-26T02:23:55;2.70;;;2.00;;
15043;SDS011;7619;48.562;8.910;2024-02-26T02:26:23;2.10;;;1.70;;
15043;SDS011;7619;48.562;8.910;2024-02-26T02:28:51;2.50;;;1.87;;
15043;SDS011;7619;48.562;8.910;2024-02-26T02:31:19;2.07;;;1.87;;
15043;SDS011;7619;48.562;8.910;2024-02-26T02:33:47;4.93;;;1.60;;
15043;SDS011;7619;48.562;8.910;2024-02-26T02:36:16;4.90;;;1.80;;
15043;SDS011;7619;48.562;8.910;2024-02-26T02:38:48;3.03;;;1.70;;
15043;SDS011;7619;48.562;8.910;2024-02-26T02:41:17;2.10;;;1.90;;
15043;SDS011;7619;48.562;8.910;2024-02-26T02:46:32;3.17;;;1.70;;
15043;SDS011;7619;48.562;8.910;2024-02-26T02:49:02;2.03;;;1.80;;
15043;SDS011;7619;48.562;8.910;2024-02-26T02:51:30;3.20;;;2.00;;
15043;SDS011;7619;48.562;8.910;2024-02-26T02:53:57;2.97;;;2.10;;
15043;SDS011;7619;48.562;8.910;2024-02-26T02:56:25;2.50;;;1.80;;
15043;SDS011;7619;48.562;8.910;2024-02-26T02:58:53;2.70;;;1.70;;
15043;SDS011;7619;48.562;8.910;2024-02-26T03:01:21;3.03;;;1.50;;
15043;SDS011;7619;48.562;8.910;2024-02-26T03:03:49;1.73;;;1.60;;
15043;SDS011;7619;48.562;8.910;2024-02-26T03:06:17;2.07;;;1.60;;
15043;SDS011;7619;48.562;8.910;2024-02-26T03:08:47;2.60;;;1.80;;
15043;SDS011;7619;48.562;8.910;2024-02-26T03:11:15;1.70;;;1.60;;
15043;SDS011;7619;48.562;8.910;2024-02-26T03:13:43;2.60;;;1.83;;
15043;SDS011;7619;48.562;8.910;2024-02-26T03:16:11;2.07;;;1.87;;
15043;SDS011;7619;48.562;8.910;2024-02-26T03:18:39;2.40;;;1.80;;
15043;SDS011;7619;48.562;8.910;2024-02-26T03:21:07;1.83;;;1.50;;
15043;SDS011;7619;48.562;8.910;2024-02-26T03:23:35;1.40;;;1.30;;
15043;SDS011;7619;48.562;8.910;2024-02-26T03:26:03;2.87;;;1.50;;
15043;SDS011;7619;48.562;8.910;2024-02-26T03:28:31;1.47;;;1.37;;
15043;SDS011;7619;48.562;8.910;2024-02-26T03:31:00;2.97;;;1.90;;
15043;SDS011;7619;48.562;8.910;2024-02-26T03:33:29;1.87;;;1.60;;
15043;SDS011;7619;48.562;8.910;2024-02-26T03:35:57;2.30;;;1.80;;
15043;SDS011;7619;48.562;8.910;2024-02-26T03:38:25;1.87;;;1.30;;
15043;SDS011;7619;48.562;8.910;2024-02-26T03:40:53;2.07;;;1.63;;
15043;SDS011;7619;48.562;8.910;2024-02-26T03:43:21;2.93;;;2.20;;
15043;SDS011;7619;48.562;8.910;2024-02-26T03:45:50;2.23;;;2.03;;
15043;SDS011;7619;48.562;8.910;2024-02-26T03:48:18;2.03;;;1.63;;
15043;SDS011;7619;48.562;8.910;2024-02-26T03:50:46;2.13;;;1.80;;
15043;SDS011;7619;48.562;8.910;2024-02-26T03:53:14;3.33;;;2.00;;
15043;SDS011;7619;48.562;8.910;2024-02-26T03:55:42;4.77;;;2.40;;
15043;SDS011;7619;48.562;8.910;2024-02-26T03:58:12;3.67;;;2.20;;
15043;SDS011;7619;48.562;8.910;2024-02-26T04:00:40;1.90;;;1.77;;
15043;SDS011;7619;48.562;8.910;2024-02-26T04:03:08;2.93;;;2.43;;
15043;SDS011;7619;48.562;8.910;2024-02-26T04:05:36;3.40;;;2.33;;
15043;SDS011;7619;48.562;8.910;2024-02-26T04:08:05;2.40;;;2.20;;
15043;SDS011;7619;48.562;8.910;2024-02-26T04:10:34;2.07;;;1.83;;
15043;SDS011;7619;48.562;8.910;2024-02-26T04:13:04;2.60;;;2.20;;
15043;SDS011;7619;48.562;8.910;2024-02-26T04:15:32;1.93;;;1.73;;
15043;SDS011;7619;48.562;8.910;2024-02-26T04:18:00;2.30;;;1.80;;
15043;SDS011;7619;48.562;8.910;2024-02-26T04:20:29;2.70;;;2.10;;
15043;SDS011;7619;48.562;8.910;2024-02-26T04:22:57;3.30;;;2.50;;
15043;SDS011;7619;48.562;8.910;2024-02-26T04:25:25;4.50;;;2.83;;
15043;SDS011;7619;48.562;8.910;2024-02-26T04:27:53;2.43;;;2.03;;
15043;SDS011;7619;48.562;8.910;2024-02-26T04:30:21;2.90;;;2.30;;
15043;SDS011;7619;48.562;8.910;2024-02-26T04:32:49;2.33;;;1.83;;
15043;SDS011;7619;48.562;8.910;2024-02-26T04:35:17;2.70;;;2.00;;
15043;SDS011;7619;48.562;8.910;2024-02-26T04:37:45;1.77;;;1.67;;
15043;SDS011;7619;48.562;8.910;2024-02-26T04:40:13;2.37;;;1.70;;
15043;SDS011;7619;48.562;8.910;2024-02-26T04:42:41;3.60;;;1.93;;
15043;SDS011;7619;48.562;8.910;2024-02-26T04:45:09;2.33;;;1.73;;
15043;SDS011;7619;48.562;8.910;2024-02-26T04:47:37;2.63;;;1.50;;
15043;SDS011;7619;48.562;8.910;2024-02-26T04:50:06;2.13;;;1.73;;
15043;SDS011;7619;48.562;8.910;2024-02-26T04:52:34;1.93;;;1.70;;
15043;SDS011;7619;48.562;8.910;2024-02-26T04:55:03;4.77;;;1.83;;
15043;SDS011;7619;48.562;8.910;2024-02-26T04:57:31;2.33;;;1.70;;
15043;SDS011;7619;48.562;8.910;2024-02-26T04:59:59;2.23;;;1.83;;
15043;SDS011;7619;48.562;8.910;2024-02-26T05:02:27;3.07;;;2.10;;
15043;SDS011;7619;48.562;8.910;2024-02-26T05:04:57;2.07;;;1.80;;
15043;SDS011;7619;48.562;8.910;2024-02-26T05:07:25;2.53;;;1.80;;
15043;SDS011;7619;48.562;8.910;2024-02-26T05:09:53;3.67;;;2.07;;
15043;SDS011;7619;48.562;8.910;2024-02-26T05:12:21;2.70;;;1.70;;
15043;SDS011;7619;48.562;8.910;2024-02-26T05:14:49;2.23;;;1.90;;
15043;SDS011;7619;48.562;8.910;2024-02-26T05:17:17;2.57;;;1.97;;
15043;SDS011;7619;48.562;8.910;2024-02-26T05:19:45;2.57;;;2.23;;
15043;SDS011;7619;48.562;8.910;2024-02-26T05:22:12;4.00;;;2.20;;
15043;SDS011;7619;48.562;8.910;2024-02-26T05:24:41;4.80;;;2.00;;
15043;SDS011;7619;48.562;8.910;2024-02-26T05:27:09;3.97;;;3.27;;
15043;SDS011;7619;48.562;8.910;2024-02-26T05:29:38;4.83;;;3.40;;
15043;SDS011;7619;48.562;8.910;2024-02-26T05:32:06;3.20;;;2.53;;
15043;SDS011;7619;48.562;8.910;2024-02-26T05:34:34;3.03;;;2.23;;
15043;SDS011;7619;48.562;8.910;2024-02-26T05:37:03;1.90;;;1.80;;
15043;SDS011;7619;48.562;8.910;2024-02-26T05:39:31;2.57;;;1.77;;
15043;SDS011;7619;48.562;8.910;2024-02-26T05:41:59;1.93;;;1.73;;
15043;SDS011;7619;48.562;8.910;2024-02-26T05:44:27;1.73;;;1.43;;
15043;SDS011;7619;48.562;8.910;2024-02-26T05:46:55;1.77;;;1.67;;
15043;SDS011;7619;48.562;8.910;2024-02-26T05:49:23;2.03;;;1.80;;
15043;SDS011;7619;48.562;8.910;2024-02-26T05:51:51;2.53;;;2.00;;
15043;SDS011;7619;48.562;8.910;2024-02-26T05:54:19;1.67;;;1.30;;
15043;SDS011;7619;48.562;8.910;2024-02-26T05:56:47;1.80;;;1.40;;
15043;SDS011;7619;48.562;8.910;2024-02-26T05:59:15;2.30;;;1.70;;
15043;SDS011;7619;48.562;8.910;2024-02-26T06:01:43;2.63;;;1.87;;
15043;SDS011;7619;48.562;8.910;2024-02-26T06:04:11;2.23;;;2.03;;
15043;SDS011;7619;48.562;8.910;2024-02-26T06:06:39;2.60;;;2.20;;
15043;SDS011;7619;48.562;8.910;2024-02-26T06:09:07;2.50;;;2.20;;
15043;SDS011;7619;48.562;8.910;2024-02-26T06:11:37;2.13;;;1.87;;
15043;SDS011;7619;48.562;8.910;2024-02-26T06:14:05;1.93;;;1.70;;
15043;SDS011;7619;48.562;8.910;2024-02-26T06:16:33;3.60;;;2.03;;
15043;SDS011;7619;48.562;8.910;2024-02-26T06:19:01;1.77;;;1.67;;
15043;SDS011;7619;48.562;8.910;2024-02-26T06:21:30;2.90;;;2.03;;
15043;SDS011;7619;48.562;8.910;2024-02-26T06:23:58;2.33;;;1.77;;
15043;SDS011;7619;48.562;8.910;2024-02-26T06:26:26;2.10;;;1.80;;
15043;SDS011;7619;48.562;8.910;2024-02-26T06:28:55;1.93;;;1.70;;
15043;SDS011;7619;48.562;8.910;2024-02-26T06:31:23;4.17;;;2.50;;
15043;SDS011;7619;48.562;8.910;2024-02-26T06:33:53;3.73;;;2.67;;
15043;SDS011;7619;48.562;8.910;2024-02-26T06:36:22;3.37;;;2.50;;
15043;SDS011;7619;48.562;8.910;2024-02-26T06:38:50;4.30;;;3.57;;
15043;SDS011;7619;48.562;8.910;2024-02-26T06:41:18;5.93;;;3.33;;
15043;SDS011;7619;48.562;8.910;2024-02-26T06:43:46;5.33;;;3.13;;
15043;SDS011;7619;48.562;8.910;2024-02-26T06:46:15;3.97;;;3.37;;
15043;SDS011;7619;48.562;8.910;2024-02-26T06:48:43;7.10;;;3.50;;
15043;SDS011;7619;48.562;8.910;2024-02-26T06:51:11;7.03;;;3.93;;
15043;SDS011;7619;48.562;8.910;2024-02-26T06:53:39;5.80;;;3.97;;
15043;SDS011;7619;48.562;8.910;2024-02-26T06:56:07;5.20;;;3.83;;
15043;SDS011;7619;48.562;8.910;2024-02-26T06:58:35;3.13;;;2.80;;
15043;SDS011;7619;48.562;8.910;2024-02-26T07:01:03;5.40;;;3.40;;
15043;SDS011;7619;48.562;8.910;2024-02-26T07:03:32;4.90;;;3.93;;
15043;SDS011;7619;48.562;8.910;2024-02-26T07:05:59;3.40;;;3.07;;
15043;SDS011;7619;48.562;8.910;2024-02-26T07:08:27;4.77;;;3.00;;
15043;SDS011;7619;48.562;8.910;2024-02-26T07:10:55;2.77;;;2.57;;
15043;SDS011;7619;48.562;8.910;2024-02-26T07:13:23;8.87;;;3.20;;
15043;SDS011;7619;48.562;8.910;2024-02-26T07:15:51;5.50;;;2.80;;
15043;SDS011;7619;48.562;8.910;2024-02-26T07:18:20;4.33;;;2.67;;
15043;SDS011;7619;48.562;8.910;2024-02-26T07:20:48;5.93;;;2.43;;
15043;SDS011;7619;48.562;8.910;2024-02-26T07:23:16;2.80;;;2.50;;
15043;SDS011;7619;48.562;8.910;2024-02-26T07:25:44;7.93;;;2.40;;
15043;SDS011;7619;48.562;8.910;2024-02-26T07:28:13;7.23;;;2.07;;
15043;SDS011;7619;48.562;8.910;2024-02-26T07:30:41;6.77;;;2.97;;
15043;SDS011;7619;48.562;8.910;2024-02-26T07:33:09;6.63;;;2.43;;
15043;SDS011;7619;48.562;8.910;2024-02-26T07:35:37;2.73;;;2.30;;
15043;SDS011;7619;48.562;8.910;2024-02-26T07:38:05;1.97;;;1.77;;
15043;SDS011;7619;48.562;8.910;2024-02-26T07:40:33;2.33;;;1.87;;
15043;SDS011;7619;48.562;8.910;2024-02-26T07:43:01;2.80;;;2.00;;
15043;SDS011;7619;48.562;8.910;2024-02-26T07:45:29;3.97;;;1.50;;
15043;SDS011;7619;48.562;8.910;2024-02-26T07:47:57;2.30;;;1.50;;
15043;SDS011;7619;48.562;8.910;2024-02-26T07:50:25;1.77;;;1.57;;
15043;SDS011;7619;48.562;8.910;2024-02-26T07:52:53;1.43;;;1.20;;
15043;SDS011;7619;48.562;8.910;2024-02-26T07:55:21;2.43;;;1.40;;
15043;SDS011;7619;48.562;8.910;2024-02-26T07:57:50;1.57;;;1.47;;
15043;SDS011;7619;48.562;8.910;2024-02-26T08:00:18;2.10;;;1.63;;
15043;SDS011;7619;48.562;8.910;2024-02-26T08:02:46;1.47;;;1.33;;
15043;SDS011;7619;48.562;8.910;2024-02-26T08:05:14;2.97;;;1.50;;
15043;SDS011;7619;48.562;8.910;2024-02-26T08:07:42;1.10;;;1.00;;
15043;SDS011;7619;48.562;8.910;2024-02-26T08:10:10;1.40;;;1.30;;
15043;SDS011;7619;48.562;8.910;2024-02-26T08:12:38;1.40;;;1.27;;
15043;SDS011;7619;48.562;8.910;2024-02-26T08:15:07;1.00;;;1.00;;
15043;SDS011;7619;48.562;8.910;2024-02-26T08:17:36;1.33;;;1.23;;
15043;SDS011;7619;48.562;8.910;2024-02-26T08:20:05;1.70;;;1.60;;
15043;SDS011;7619;48.562;8.910;2024-02-26T08:22:33;1.80;;;1.47;;
15043;SDS011;7619;48.562;8.910;2024-02-26T08:25:01;2.47;;;1.30;;
15043;SDS011;7619;48.562;8.910;2024-02-26T08:27:31;3.00;;;1.53;;
15043;SDS011;7619;48.562;8.910;2024-02-26T08:29:59;1.73;;;1.50;;
15043;SDS011;7619;48.562;8.910;2024-02-26T08:32:28;1.80;;;1.50;;
15043;SDS011;7619;48.562;8.910;2024-02-26T08:34:56;2.20;;;1.53;;
15043;SDS011;7619;48.562;8.910;2024-02-26T08:37:24;3.37;;;1.87;;
15043;SDS011;7619;48.562;8.910;2024-02-26T08:39:52;1.40;;;1.30;;
15043;SDS011;7619;48.562;8.910;2024-02-26T08:42:20;1.80;;;1.57;;
15043;SDS011;7619;48.562;8.910;2024-02-26T08:44:50;1.60;;;1.20;;
15043;SDS011;7619;48.562;8.910;2024-02-26T08:47:18;1.87;;;1.33;;
15043;SDS011;7619;48.562;8.910;2024-02-26T08:49:46;2.43;;;1.30;;
15043;SDS011;7619;48.562;8.910;2024-02-26T08:52:14;1.20;;;1.10;;
15043;SDS011;7619;48.562;8.910;2024-02-26T08:54:42;2.87;;;1.90;;
15043;SDS011;7619;48.562;8.910;2024-02-26T08:57:10;1.90;;;1.73;;
15043;SDS011;7619;48.562;8.910;2024-02-26T08:59:38;1.30;;;1.20;;
15043;SDS011;7619;48.562;8.910;2024-02-26T09:02:07;1.30;;;1.20;;
15043;SDS011;7619;48.562;8.910;2024-02-26T09:04:35;3.57;;;1.13;;
15043;SDS011;7619;48.562;8.910;2024-02-26T09:07:03;1.30;;;1.20;;
15043;SDS011;7619;48.562;8.910;2024-02-26T09:09:32;4.43;;;1.70;;
15043;SDS011;7619;48.562;8.910;2024-02-26T09:12:00;1.37;;;1.27;;
15043;SDS011;7619;48.562;8.910;2024-02-26T09:14:28;1.40;;;1.03;;
15043;SDS011;7619;48.562;8.910;2024-02-26T09:16:56;1.60;;;1.03;;
15043;SDS011;7619;48.562;8.910;2024-02-26T09:19:24;4.00;;;1.33;;
15043;SDS011;7619;48.562;8.910;2024-02-26T09:21:52;1.47;;;1.23;;
15043;SDS011;7619;48.562;8.910;2024-02-26T09:24:23;1.30;;;1.20;;
15043;SDS011;7619;48.562;8.910;2024-02-26T09:26:51;1.90;;;1.30;;
15043;SDS011;7619;48.562;8.910;2024-02-26T09:29:19;2.20;;;1.10;;
15043;SDS011;7619;48.562;8.910;2024-02-26T09:31:47;1.90;;;1.13;;
15043;SDS011;7619;48.562;8.910;2024-02-26T09:34:15;2.33;;;2.10;;
15043;SDS011;7619;48.562;8.910;2024-02-26T09:36:43;3.77;;;1.33;;
15043;SDS011;7619;48.562;8.910;2024-02-26T09:39:11;2.17;;;1.30;;
15043;SDS011;7619;48.562;8.910;2024-02-26T09:41:41;2.20;;;1.50;;
15043;SDS011;7619;48.562;8.910;2024-02-26T09:44:09;2.37;;;1.33;;
15043;SDS011;7619;48.562;8.910;2024-02-26T09:46:38;1.73;;;1.43;;
15043;SDS011;7619;48.562;8.910;2024-02-26T09:49:06;2.53;;;1.37;;
15043;SDS011;7619;48.562;8.910;2024-02-26T09:51:34;2.03;;;1.33;;
15043;SDS011;7619;48.562;8.910;2024-02-26T09:54:02;2.63;;;1.73;;
15043;SDS011;7619;48.562;8.910;2024-02-26T09:56:30;1.80;;;1.60;;
15043;SDS011;7619;48.562;8.910;2024-02-26T09:58:59;1.47;;;1.37;;
15043;SDS011;7619;48.562;8.910;2024-02-26T10:01:27;2.50;;;1.80;;
15043;SDS011;7619;48.562;8.910;2024-02-26T10:03:57;1.83;;;1.30;;
15043;SDS011;7619;48.562;8.910;2024-02-26T10:06:25;1.10;;;1.00;;
15043;SDS011;7619;48.562;8.910;2024-02-26T10:08:54;2.20;;;1.40;;
15043;SDS011;7619;48.562;8.910;2024-02-26T10:11:22;1.97;;;1.50;;
15043;SDS011;7619;48.562;8.910;2024-02-26T10:13:51;2.37;;;1.67;;
15043;SDS011;7619;48.562;8.910;2024-02-26T10:16:19;2.23;;;1.50;;
15043;SDS011;7619;48.562;8.910;2024-02-26T10:18:48;2.10;;;1.73;;
15043;SDS011;7619;48.562;8.910;2024-02-26T10:21:16;2.13;;;1.30;;
15043;SDS011;7619;48.562;8.910;2024-02-26T10:23:45;1.57;;;1.17;;
15043;SDS011;7619;48.562;8.910;2024-02-26T10:26:14;2.07;;;1.10;;
15043;SDS011;7619;48.562;8.910;2024-02-26T10:28:43;1.83;;;1.10;;
15043;SDS011;7619;48.562;8.910;2024-02-26T10:31:11;1.57;;;1.47;;
15043;SDS011;7619;48.562;8.910;2024-02-26T10:33:41;1.13;;;0.90;;
15043;SDS011;7619;48.562;8.910;2024-02-26T10:36:10;1.87;;;1.33;;
15043;SDS011;7619;48.562;8.910;2024-02-26T10:38:38;1.33;;;1.00;;
15043;SDS011;7619;48.562;8.910;2024-02-26T10:41:06;1.10;;;1.00;;
15043;SDS011;7619;48.562;8.910;2024-02-26T10:43:35;1.60;;;1.20;;
15043;SDS011;7619;48.562;8.910;2024-02-26T10:46:03;1.40;;;1.20;;
15043;SDS011;7619;48.562;8.910;2024-02-26T10:48:32;1.73;;;1.30;;
15043;SDS011;7619;48.562;8.910;2024-02-26T10:51:00;1.73;;;1.10;;
15043;SDS011;7619;48.562;8.910;2024-02-26T10:53:29;2.23;;;1.37;;
15043;SDS011;7619;48.562;8.910;2024-02-26T10:56:00;1.53;;;1.13;;
15043;SDS011;7619;48.562;8.910;2024-02-26T10:58:27;1.13;;;1.00;;
15043;SDS011;7619;48.562;8.910;2024-02-26T11:00:56;1.73;;;1.10;;
15043;SDS011;7619;48.562;8.910;2024-02-26T11:03:25;1.30;;;1.10;;
15043;SDS011;7619;48.562;8.910;2024-02-26T11:05:53;1.10;;;1.00;;
15043;SDS011;7619;48.562;8.910;2024-02-26T11:08:21;1.23;;;1.00;;
15043;SDS011;7619;48.562;8.910;2024-02-26T11:10:52;1.97;;;1.10;;
15043;SDS011;7619;48.562;8.910;2024-02-26T11:13:21;2.20;;;0.87;;
15043;SDS011;7619;48.562;8.910;2024-02-26T11:15:49;0.90;;;0.90;;
15043;SDS011;7619;48.562;8.910;2024-02-26T11:18:17;1.33;;;1.03;;
15043;SDS011;7619;48.562;8.910;2024-02-26T11:20:47;1.37;;;0.90;;
15043;SDS011;7619;48.562;8.910;2024-02-26T11:23:15;1.17;;;0.93;;
15043;SDS011;7619;48.562;8.910;2024-02-26T11:25:43;0.80;;;0.80;;
15043;SDS011;7619;48.562;8.910;2024-02-26T11:28:12;1.40;;;1.30;;
15043;SDS011;7619;48.562;8.910;2024-02-26T11:30:42;2.37;;;1.37;;
15043;SDS011;7619;48.562;8.910;2024-02-26T11:33:11;6.60;;;1.97;;
15043;SDS011;7619;48.562;8.910;2024-02-26T11:35:39;2.07;;;1.50;;
15043;SDS011;7619;48.562;8.910;2024-02-26T11:38:07;2.43;;;1.23;;
15043;SDS011;7619;48.562;8.910;2024-02-26T11:40:38;1.83;;;1.40;;
15043;SDS011;7619;48.562;8.910;2024-02-26T11:43:07;1.37;;;1.03;;
15043;SDS011;7619;48.562;8.910;2024-02-26T11:45:47;2.23;;;1.20;;
15043;SDS011;7619;48.562;8.910;2024-02-26T11:48:11;1.60;;;1.10;;
15043;SDS011;7619;48.562;8.910;2024-02-26T11:50:39;1.57;;;1.30;;
15043;SDS011;7619;48.562;8.910;2024-02-26T11:53:20;2.30;;;1.10;;
15043;SDS011;7619;48.562;8.910;2024-02-26T11:55:49;4.23;;;1.90;;
15043;SDS011;7619;48.562;8.910;2024-02-26T11:58:18;2.27;;;1.40;;
15043;SDS011;7619;48.562;8.910;2024-02-26T12:00:46;1.50;;;1.33;;
15043;SDS011;7619;48.562;8.910;2024-02-26T12:03:14;1.50;;;1.37;;
15043;SDS011;7619;48.562;8.910;2024-02-26T12:05:43;2.73;;;1.80;;
15043;SDS011;7619;48.562;8.910;2024-02-26T12:08:11;1.83;;;1.30;;
15043;SDS011;7619;48.562;8.910;2024-02-26T12:10:40;1.70;;;1.30;;
15043;SDS011;7619;48.562;8.910;2024-02-26T12:13:10;1.53;;;1.13;;
15043;SDS011;7619;48.562;8.910;2024-02-26T12:15:41;0.97;;;0.87;;
15043;SDS011;7619;48.562;8.910;2024-02-26T12:18:12;1.53;;;1.20;;
15043;SDS011;7619;48.562;8.910;2024-02-26T12:20:39;1.20;;;0.93;;
15043;SDS011;7619;48.562;8.910;2024-02-26T12:23:07;2.37;;;1.17;;
15043;SDS011;7619;48.562;8.910;2024-02-26T12:25:35;2.60;;;0.97;;
15043;SDS011;7619;48.562;8.910;2024-02-26T12:28:04;1.60;;;1.00;;
15043;SDS011;7619;48.562;8.910;2024-02-26T12:30:32;2.87;;;1.10;;
15043;SDS011;7619;48.562;8.910;2024-02-26T12:33:00;1.67;;;1.20;;
15043;SDS011;7619;48.562;8.910;2024-02-26T12:35:28;1.10;;;1.00;;
15043;SDS011;7619;48.562;8.910;2024-02-26T12:37:58;1.37;;;1.20;;
15043;SDS011;7619;48.562;8.910;2024-02-26T12:40:27;1.20;;;1.10;;
15043;SDS011;7619;48.562;8.910;2024-02-26T12:42:55;2.90;;;1.10;;
15043;SDS011;7619;48.562;8.910;2024-02-26T12:45:23;1.20;;;1.00;;
15043;SDS011;7619;48.562;8.910;2024-02-26T12:47:53;2.30;;;1.27;;
15043;SDS011;7619;48.562;8.910;2024-02-26T12:50:21;1.30;;;1.07;;
15043;SDS011;7619;48.562;8.910;2024-02-26T12:52:49;1.70;;;1.00;;
15043;SDS011;7619;48.562;8.910;2024-02-26T12:55:19;1.20;;;1.10;;
15043;SDS011;7619;48.562;8.910;2024-02-26T12:57:48;1.50;;;1.00;;
15043;SDS011;7619;48.562;8.910;2024-02-26T13:00:20;1.57;;;1.17;;
15043;SDS011;7619;48.562;8.910;2024-02-26T13:02:49;0.73;;;0.73;;
15043;SDS011;7619;48.562;8.910;2024-02-26T13:05:17;0.77;;;0.73;;
15043;SDS011;7619;48.562;8.910;2024-02-26T13:07:46;2.67;;;1.20;;
15043;SDS011;7619;48.562;8.910;2024-02-26T13:10:14;0.80;;;0.80;;
15043;SDS011;7619;48.562;8.910;2024-02-26T13:12:44;0.70;;;0.70;;
15043;SDS011;7619;48.562;8.910;2024-02-26T13:15:14;0.50;;;0.50;;
15043;SDS011;7619;48.562;8.910;2024-02-26T13:17:43;0.77;;;0.67;;
15043;SDS011;7619;48.562;8.910;2024-02-26T13:20:11;0.73;;;0.70;;
15043;SDS011;7619;48.562;8.910;2024-02-26T13:22:40;1.47;;;0.80;;
15043;SDS011;7619;48.562;8.910;2024-02-26T13:25:08;0.70;;;0.70;;
15043;SDS011;7619;48.562;8.910;2024-02-26T13:27:36;0.50;;;0.50;;
15043;SDS011;7619;48.562;8.910;2024-02-26T13:30:06;1.27;;;0.80;;
15043;SDS011;7619;48.562;8.910;2024-02-26T13:32:35;0.60;;;0.60;;
15043;SDS011;7619;48.562;8.910;2024-02-26T13:35:04;0.40;;;0.40;;
15043;SDS011;7619;48.562;8.910;2024-02-26T13:37:33;0.50;;;0.50;;
15043;SDS011;7619;48.562;8.910;2024-02-26T13:40:01;0.97;;;0.80;;
15043;SDS011;7619;48.562;8.910;2024-02-26T13:42:31;2.40;;;0.73;;
15043;SDS011;7619;48.562;8.910;2024-02-26T13:44:59;1.53;;;0.47;;
15043;SDS011;7619;48.562;8.910;2024-02-26T13:47:27;0.60;;;0.60;;
15043;SDS011;7619;48.562;8.910;2024-02-26T13:49:55;0.40;;;0.40;;
15043;SDS011;7619;48.562;8.910;2024-02-26T13:52:23;0.40;;;0.37;;
15043;SDS011;7619;48.562;8.910;2024-02-26T13:54:52;2.20;;;0.60;;
15043;SDS011;7619;48.562;8.910;2024-02-26T13:57:20;0.47;;;0.40;;
15043;SDS011;7619;48.562;8.910;2024-02-26T13:59:48;2.43;;;0.50;;
15043;SDS011;7619;48.562;8.910;2024-02-26T14:02:17;0.60;;;0.60;;
15043;SDS011;7619;48.562;8.910;2024-02-26T14:04:45;0.40;;;0.40;;
15043;SDS011;7619;48.562;8.910;2024-02-26T14:07:14;0.20;;;0.20;;
15043;SDS011;7619;48.562;8.910;2024-02-26T14:09:43;0.40;;;0.20;;
15043;SDS011;7619;48.562;8.910;2024-02-26T14:12:12;0.20;;;0.20;;
15043;SDS011;7619;48.562;8.910;2024-02-26T14:14:40;0.40;;;0.40;;
15043;SDS011;7619;48.562;8.910;2024-02-26T14:17:09;0.70;;;0.40;;
15043;SDS011;7619;48.562;8.910;2024-02-26T14:19:38;0.20;;;0.20;;
15043;SDS011;7619;48.562;8.910;2024-02-26T14:22:08;0.40;;;0.40;;
15043;SDS011;7619;48.562;8.910;2024-02-26T14:24:35;0.10;;;0.10;;
15043;SDS011;7619;48.562;8.910;2024-02-26T14:27:04;0.10;;;0.10;;
15043;SDS011;7619;48.562;8.910;2024-02-26T14:29:32;0.40;;;0.40;;
15043;SDS011;7619;48.562;8.910;2024-02-26T14:32:00;1.20;;;0.50;;
15043;SDS011;7619;48.562;8.910;2024-02-26T14:34:29;0.20;;;0.20;;
15043;SDS011;7619;48.562;8.910;2024-02-26T14:36:57;0.23;;;0.23;;
15043;SDS011;7619;48.562;8.910;2024-02-26T14:39:25;0.60;;;0.40;;
15043;SDS011;7619;48.562;8.910;2024-02-26T14:41:53;0.23;;;0.23;;
15043;SDS011;7619;48.562;8.910;2024-02-26T14:44:21;0.30;;;0.30;;
15043;SDS011;7619;48.562;8.910;2024-02-26T14:46:49;0.20;;;0.20;;
15043;SDS011;7619;48.562;8.910;2024-02-26T14:49:17;0.20;;;0.20;;
15043;SDS011;7619;48.562;8.910;2024-02-26T14:51:45;0.63;;;0.30;;
15043;SDS011;7619;48.562;8.910;2024-02-26T14:54:13;0.40;;;0.40;;
15043;SDS011;7619;48.562;8.910;2024-02-26T14:56:41;0.23;;;0.23;;
15043;SDS011;7619;48.562;8.910;2024-02-26T14:59:09;1.80;;;0.30;;
15043;SDS011;7619;48.562;8.910;2024-02-26T15:01:37;0.30;;;0.30;;
15043;SDS011;7619;48.562;8.910;2024-02-26T15:04:05;0.30;;;0.27;;
15043;SDS011;7619;48.562;8.910;2024-02-26T15:06:33;0.43;;;0.40;;
15043;SDS011;7619;48.562;8.910;2024-02-26T15:09:01;1.73;;;0.90;;